createdAt,value
2022-12-02T00:01:41.509Z,21.00
2022-12-02T00:04:29.519Z,27.50
2022-12-02T00:06:59.980Z,26.30
2022-12-02T00:09:32.797Z,24.70
2022-12-02T00:12:13.032Z,25.20
2022-12-02T00:14:40.599Z,23.50
2022-12-02T00:17:08.192Z,26.30
2022-12-02T00:19:35.793Z,21.10
2022-12-02T00:22:03.337Z,26.40
2022-12-02T00:24:30.943Z,22.20
2022-12-02T00:26:58.633Z,21.90
2022-12-02T00:29:26.195Z,25.30
2022-12-02T00:31:53.860Z,25.90
2022-12-02T00:34:21.513Z,22.40
2022-12-02T00:36:49.190Z,22.70
2022-12-02T00:39:16.837Z,24.20
2022-12-02T00:41:44.418Z,26.90
2022-12-02T00:44:12.008Z,23.90
2022-12-02T00:46:40.004Z,24.40
2022-12-02T00:49:15.780Z,25.60
2022-12-02T00:51:45.018Z,24.90
2022-12-02T00:54:13.595Z,26.00
2022-12-02T00:56:41.557Z,22.50
2022-12-02T00:59:09.147Z,25.40
2022-12-02T01:01:36.954Z,23.50
2022-12-02T01:04:05.104Z,27.30
2022-12-02T01:06:32.710Z,23.10
2022-12-02T01:09:00.291Z,27.40
2022-12-02T01:11:27.878Z,24.00
2022-12-02T01:13:55.450Z,28.20
2022-12-02T01:16:23.550Z,20.80
2022-12-02T01:18:51.272Z,23.80
2022-12-02T01:21:18.862Z,22.60
2022-12-02T01:23:46.448Z,26.00
2022-12-02T01:26:14.074Z,21.80
2022-12-02T01:28:41.692Z,17.80
2022-12-02T01:31:09.283Z,25.90
2022-12-02T01:33:37.190Z,27.40
2022-12-02T01:36:05.142Z,23.50
2022-12-02T01:38:32.756Z,25.30
2022-12-02T01:41:01.296Z,24.10
2022-12-02T01:43:29.190Z,24.50
2022-12-02T01:45:57.107Z,25.90
2022-12-02T01:48:24.865Z,22.50
2022-12-02T01:50:52.646Z,21.80
2022-12-02T01:53:21.643Z,22.90
2022-12-02T01:55:49.452Z,24.80
2022-12-02T01:58:20.824Z,22.30
2022-12-02T02:00:48.457Z,24.40
2022-12-02T02:03:16.125Z,19.00
2022-12-02T02:05:43.765Z,18.40
2022-12-02T02:08:12.734Z,23.90
2022-12-02T02:10:43.166Z,19.30
2022-12-02T02:13:13.049Z,20.50
2022-12-02T02:15:43.071Z,20.10
2022-12-02T02:18:10.836Z,19.70
2022-12-02T02:20:40.770Z,17.80
2022-12-02T02:23:08.284Z,21.10
2022-12-02T02:25:47.651Z,22.00
2022-12-02T02:28:15.551Z,20.10
2022-12-02T02:30:43.505Z,24.00
2022-12-02T02:33:13.740Z,20.30
2022-12-02T02:35:42.348Z,15.90
2022-12-02T02:38:14.690Z,21.40
2022-12-02T02:40:43.044Z,18.80
2022-12-02T02:43:11.674Z,18.20
2022-12-02T02:45:43.030Z,20.80
2022-12-02T02:48:12.351Z,19.10
2022-12-02T02:50:43.444Z,20.20
2022-12-02T02:53:13.099Z,20.20
2022-12-02T02:55:40.965Z,22.90
2022-12-02T02:58:14.326Z,20.70
2022-12-02T03:00:44.083Z,19.40
2022-12-02T03:03:14.292Z,14.90
2022-12-02T03:05:42.496Z,18.20
2022-12-02T03:08:10.687Z,16.10
2022-12-02T03:10:39.029Z,16.60
2022-12-02T03:13:06.820Z,17.20
2022-12-02T03:15:34.970Z,20.60
2022-12-02T03:18:03.155Z,19.40
2022-12-02T03:20:30.861Z,21.70
2022-12-02T03:22:59.811Z,18.20
2022-12-02T03:25:28.190Z,17.80
2022-12-02T03:27:56.615Z,18.20
2022-12-02T03:30:24.540Z,19.10
2022-12-02T03:32:52.464Z,17.60
2022-12-02T03:35:20.306Z,21.30
2022-12-02T03:37:48.113Z,20.50
2022-12-02T03:40:16.369Z,18.10
2022-12-02T03:42:44.322Z,18.70
2022-12-02T03:45:12.609Z,17.70
2022-12-02T03:47:41.153Z,19.80
2022-12-02T03:50:10.045Z,17.60
2022-12-02T03:52:37.962Z,19.80
2022-12-02T03:55:06.855Z,20.70
2022-12-02T03:57:35.022Z,21.10
2022-12-02T04:00:04.676Z,20.30
2022-12-02T04:02:32.284Z,18.80
2022-12-02T04:04:59.974Z,20.20
2022-12-02T04:07:27.622Z,20.80
2022-12-02T04:09:55.206Z,18.00
2022-12-02T04:12:22.890Z,22.20
2022-12-02T04:14:50.856Z,21.80
2022-12-02T04:17:19.156Z,20.30
2022-12-02T04:19:46.731Z,17.10
2022-12-02T04:22:14.280Z,17.40
2022-12-02T04:24:41.938Z,19.20
2022-12-02T04:27:09.526Z,17.90
2022-12-02T04:29:37.129Z,19.90
2022-12-02T04:32:05.127Z,19.20
2022-12-02T04:34:32.806Z,20.80
2022-12-02T04:37:00.397Z,16.80
2022-12-02T04:39:27.991Z,19.00
2022-12-02T04:41:55.582Z,19.90
2022-12-02T04:44:23.216Z,20.60
2022-12-02T04:46:50.895Z,21.30
2022-12-02T04:49:19.176Z,20.70
2022-12-02T04:51:46.792Z,19.90
2022-12-02T04:54:14.384Z,21.20
2022-12-02T04:56:41.967Z,24.00
2022-12-02T04:59:09.554Z,20.30
2022-12-02T05:01:37.142Z,23.40
2022-12-02T05:04:04.838Z,23.40
2022-12-02T05:06:32.539Z,18.80
2022-12-02T05:09:00.152Z,22.10
2022-12-02T05:11:30.864Z,17.70
2022-12-02T05:14:02.403Z,19.90
2022-12-02T05:16:30.090Z,19.20
2022-12-02T05:18:57.996Z,17.80
2022-12-02T05:21:25.583Z,22.10
2022-12-02T05:23:53.525Z,18.20
2022-12-02T05:26:21.128Z,21.10
2022-12-02T05:28:48.784Z,20.20
2022-12-02T05:31:16.511Z,23.00
2022-12-02T05:33:44.205Z,22.60
2022-12-02T05:36:11.774Z,21.10
2022-12-02T05:38:40.053Z,23.10
2022-12-02T05:41:07.697Z,23.90
2022-12-02T05:43:39.587Z,21.40
2022-12-02T05:46:18.449Z,19.80
2022-12-02T05:48:47.693Z,21.80
2022-12-02T05:51:21.464Z,21.40
2022-12-02T05:53:50.736Z,20.80
2022-12-02T05:56:23.458Z,18.00
2022-12-02T05:58:51.289Z,20.50
2022-12-02T06:01:29.131Z,21.00
2022-12-02T06:03:58.283Z,20.80
2022-12-02T06:06:32.900Z,21.60
2022-12-02T06:09:00.953Z,22.20
2022-12-02T06:11:32.922Z,26.90
2022-12-02T06:14:09.045Z,21.80
2022-12-02T06:16:37.159Z,22.00
2022-12-02T06:19:20.176Z,21.20
2022-12-02T06:21:47.845Z,22.10
2022-12-02T06:24:15.517Z,21.40
2022-12-02T06:26:43.248Z,17.90
2022-12-02T06:29:16.577Z,22.00
2022-12-02T06:31:44.315Z,21.80
2022-12-02T06:34:27.129Z,19.20
2022-12-02T06:36:57.534Z,22.60
2022-12-02T06:39:25.284Z,22.30
2022-12-02T06:41:53.902Z,20.30
2022-12-02T06:44:26.989Z,20.20
2022-12-02T06:46:54.538Z,20.60
2022-12-02T06:49:26.467Z,20.70
2022-12-02T06:52:00.491Z,19.20
2022-12-02T06:54:30.393Z,18.80
2022-12-02T06:57:01.000Z,21.30
2022-12-02T06:59:28.839Z,19.70
2022-12-02T07:02:07.998Z,19.70
2022-12-02T07:04:38.817Z,22.20
2022-12-02T07:07:28.709Z,21.10
2022-12-02T07:10:07.888Z,13.80
2022-12-02T07:12:39.137Z,17.80
2022-12-02T07:15:09.866Z,17.90
2022-12-02T07:17:40.627Z,19.80
2022-12-02T07:20:08.124Z,23.90
2022-12-02T07:22:58.681Z,21.50
2022-12-02T07:25:37.381Z,22.00
2022-12-02T07:28:35.131Z,19.20
2022-12-02T07:31:21.076Z,20.90
2022-12-02T07:33:49.513Z,22.00
2022-12-02T07:36:17.509Z,21.80
2022-12-02T07:41:36.393Z,22.50
2022-12-02T07:44:06.111Z,15.10
2022-12-02T07:46:33.765Z,20.30
2022-12-02T07:49:01.424Z,18.50
2022-12-02T07:51:29.014Z,23.10
2022-12-02T07:53:56.592Z,24.60
2022-12-02T07:56:24.273Z,25.00
2022-12-02T08:01:39.632Z,24.20
2022-12-02T08:04:07.225Z,16.90
2022-12-02T08:06:39.313Z,22.60
2022-12-02T08:09:09.488Z,25.30
2022-12-02T08:11:37.759Z,29.60
2022-12-02T08:14:06.038Z,26.10
2022-12-02T08:16:33.822Z,26.20
2022-12-02T08:19:04.085Z,20.00
2022-12-02T08:21:31.840Z,20.40
2022-12-02T08:23:59.833Z,19.10
2022-12-02T08:26:27.612Z,22.40
2022-12-02T08:28:55.238Z,17.40
2022-12-02T08:31:23.382Z,20.70
2022-12-02T08:33:51.623Z,20.10
2022-12-02T08:36:20.267Z,20.30
2022-12-02T08:38:48.668Z,20.90
2022-12-02T08:41:16.603Z,19.10
2022-12-02T08:43:44.278Z,20.40
2022-12-02T08:46:12.947Z,23.20
2022-12-02T08:48:40.743Z,19.50
2022-12-02T08:51:08.449Z,31.10
2022-12-02T08:53:36.151Z,43.40
2022-12-02T08:56:03.872Z,35.70
2022-12-02T08:58:31.504Z,22.50
2022-12-02T09:00:59.142Z,22.30
2022-12-02T09:03:26.717Z,21.50
2022-12-02T09:05:54.306Z,21.00
2022-12-02T09:08:21.981Z,19.20
2022-12-02T09:10:49.644Z,23.20
2022-12-02T09:13:17.314Z,21.90
2022-12-02T09:15:44.988Z,22.30
2022-12-02T09:18:14.480Z,22.80
2022-12-02T09:20:42.714Z,20.20
2022-12-02T09:23:10.538Z,21.10
2022-12-02T09:25:39.717Z,23.20
2022-12-02T09:28:07.581Z,20.50
2022-12-02T09:30:35.206Z,23.40
2022-12-02T09:33:02.840Z,26.20
2022-12-02T09:35:30.470Z,20.80
2022-12-02T09:37:58.135Z,19.80
2022-12-02T09:40:26.071Z,18.40
2022-12-02T09:42:53.990Z,17.90
2022-12-02T09:45:21.614Z,16.70
2022-12-02T09:47:49.319Z,22.50
2022-12-02T09:50:17.370Z,19.40
2022-12-02T09:52:46.395Z,17.80
2022-12-02T09:55:16.927Z,22.80
2022-12-02T09:57:45.332Z,21.30
2022-12-02T10:00:19.618Z,16.80
2022-12-02T10:02:53.425Z,19.60
2022-12-02T10:05:22.548Z,21.50
2022-12-02T10:07:52.343Z,23.80
2022-12-02T10:10:23.313Z,22.30
2022-12-02T10:12:51.169Z,20.90
2022-12-02T10:15:25.416Z,19.10
2022-12-02T10:17:54.987Z,18.30
2022-12-02T10:20:26.278Z,21.20
2022-12-02T10:23:16.854Z,21.60
2022-12-02T10:25:51.614Z,20.50
2022-12-02T10:28:26.681Z,23.50
2022-12-02T10:31:09.000Z,22.50
2022-12-02T10:33:42.170Z,19.70
2022-12-02T10:36:10.323Z,27.20
2022-12-02T10:38:43.061Z,26.90
2022-12-02T10:41:25.389Z,22.70
2022-12-02T10:43:53.240Z,21.40
2022-12-02T10:46:26.693Z,22.90
2022-12-02T10:48:56.001Z,19.60
2022-12-02T10:51:23.599Z,19.30
2022-12-02T10:53:53.108Z,21.40
2022-12-02T10:56:24.885Z,24.40
2022-12-02T10:58:53.181Z,24.50
2022-12-02T11:01:21.148Z,24.60
2022-12-02T11:03:49.265Z,20.60
2022-12-02T11:06:21.077Z,23.60
2022-12-02T11:08:49.719Z,23.20
2022-12-02T11:11:37.537Z,22.90
2022-12-02T11:14:09.854Z,22.60
2022-12-02T11:16:43.491Z,23.60
2022-12-02T11:19:33.993Z,21.20
2022-12-02T11:22:02.379Z,25.90
2022-12-02T11:24:29.919Z,27.90
2022-12-02T11:27:00.356Z,23.70
2022-12-02T11:29:42.751Z,22.40
2022-12-02T11:32:22.441Z,21.60
2022-12-02T11:37:45.434Z,24.10
2022-12-02T11:40:13.008Z,24.00
2022-12-02T11:42:43.078Z,22.90
2022-12-02T11:45:16.834Z,22.50
2022-12-02T11:48:01.053Z,25.80
2022-12-02T11:50:33.028Z,27.40
2022-12-02T11:53:18.199Z,24.00
2022-12-02T11:55:51.340Z,25.40
2022-12-02T11:58:23.290Z,24.50
2022-12-02T12:01:15.702Z,23.60
2022-12-02T12:03:48.630Z,21.70
2022-12-02T12:06:18.743Z,23.20
2022-12-02T12:08:51.766Z,20.30
2022-12-02T12:11:34.208Z,21.20
2022-12-02T12:14:13.860Z,20.70
2022-12-02T12:16:44.345Z,22.60
2022-12-02T12:19:12.024Z,24.50
2022-12-02T12:21:41.709Z,22.50
2022-12-02T12:24:18.192Z,21.70
2022-12-02T12:26:51.751Z,24.10
2022-12-02T12:29:21.676Z,25.90
2022-12-02T12:31:49.409Z,23.60
2022-12-02T12:34:17.125Z,23.30
2022-12-02T12:36:46.595Z,23.20
2022-12-02T12:39:15.432Z,27.60
2022-12-02T12:42:00.154Z,23.50
2022-12-02T12:44:31.515Z,23.60
2022-12-02T12:47:08.197Z,26.80
2022-12-02T12:49:35.840Z,22.20
2022-12-02T12:52:04.004Z,21.10
2022-12-02T12:54:31.686Z,22.50
2022-12-02T12:56:59.259Z,21.30
2022-12-02T12:59:27.201Z,20.90
2022-12-02T13:01:54.925Z,22.10
2022-12-02T13:04:23.107Z,23.60
2022-12-02T13:06:50.716Z,24.50
2022-12-02T13:09:18.307Z,19.20
2022-12-02T13:11:45.901Z,20.80
2022-12-02T13:14:13.487Z,22.70
2022-12-02T13:16:41.174Z,18.80
2022-12-02T13:19:08.965Z,24.00
2022-12-02T13:21:36.582Z,21.20
2022-12-02T13:24:04.407Z,21.00
2022-12-02T13:26:31.961Z,19.90
2022-12-02T13:28:59.649Z,25.70
2022-12-02T13:31:27.359Z,25.80
2022-12-02T13:33:55.087Z,25.10
2022-12-02T13:36:22.668Z,21.20
2022-12-02T13:38:50.236Z,20.50
2022-12-02T13:41:17.808Z,25.70
2022-12-02T13:43:45.377Z,23.90
2022-12-02T13:46:13.019Z,22.50
2022-12-02T13:48:40.654Z,21.90
2022-12-02T13:51:08.325Z,22.80
2022-12-02T13:53:35.924Z,23.20
2022-12-02T13:56:03.650Z,23.50
2022-12-02T13:58:31.224Z,24.50
2022-12-02T14:00:58.782Z,25.70
2022-12-02T14:03:26.463Z,23.10
2022-12-02T14:05:54.100Z,25.90
2022-12-02T14:08:21.751Z,23.70
2022-12-02T14:10:49.385Z,21.80
2022-12-02T14:13:20.999Z,17.60
2022-12-02T14:15:49.065Z,21.70
2022-12-02T14:18:16.849Z,21.90
2022-12-02T14:20:44.428Z,22.70
2022-12-02T14:23:12.327Z,22.50
2022-12-02T14:25:40.063Z,24.40
2022-12-02T14:28:07.736Z,21.90
2022-12-02T14:30:35.346Z,22.50
2022-12-02T14:33:02.985Z,26.50
2022-12-02T14:35:30.591Z,20.10
2022-12-02T14:37:58.165Z,23.00
2022-12-02T14:40:25.775Z,26.40
2022-12-02T14:42:53.340Z,26.00
2022-12-02T14:45:20.990Z,26.90
2022-12-02T14:47:48.576Z,25.90
2022-12-02T14:50:16.175Z,21.20
2022-12-02T14:52:43.894Z,26.80
2022-12-02T14:55:11.657Z,24.30
2022-12-02T14:57:39.230Z,27.70
2022-12-02T15:00:07.547Z,23.80
2022-12-02T15:02:35.266Z,20.90
2022-12-02T15:05:03.393Z,22.80
2022-12-02T15:07:31.242Z,21.50
2022-12-02T15:10:00.127Z,20.90
2022-12-02T15:12:27.727Z,23.20
2022-12-02T15:15:02.287Z,28.80
2022-12-02T15:17:43.174Z,26.90
2022-12-02T15:20:11.969Z,28.70
2022-12-02T15:22:39.683Z,26.50
2022-12-02T15:25:07.820Z,25.80
2022-12-02T15:27:35.513Z,27.80
2022-12-02T15:30:03.647Z,27.70
2022-12-02T15:32:31.289Z,28.10
2022-12-02T15:34:58.906Z,27.60
2022-12-02T15:37:26.523Z,26.20
2022-12-02T15:39:54.175Z,26.90
2022-12-02T15:42:21.773Z,29.30
2022-12-02T15:44:49.628Z,25.50
2022-12-02T15:47:17.384Z,21.90
2022-12-02T15:49:44.999Z,24.40
2022-12-02T15:52:12.557Z,22.20
2022-12-02T15:54:40.124Z,26.70
2022-12-02T15:57:07.675Z,26.70
2022-12-02T15:59:35.408Z,25.50
2022-12-02T16:02:06.020Z,25.40
2022-12-02T16:04:33.714Z,22.70
2022-12-02T16:07:01.350Z,20.90
2022-12-02T16:09:29.015Z,23.10
2022-12-02T16:11:56.644Z,21.60
2022-12-02T16:14:24.451Z,26.90
2022-12-02T16:16:52.090Z,20.30
2022-12-02T16:19:19.671Z,25.30
2022-12-02T16:21:47.256Z,26.40
2022-12-02T16:24:14.921Z,23.70
2022-12-02T16:26:42.507Z,27.70
2022-12-02T16:29:10.190Z,22.60
2022-12-02T16:31:37.846Z,25.10
2022-12-02T16:34:05.499Z,22.20
2022-12-02T16:36:33.090Z,21.80
2022-12-02T16:39:00.754Z,23.90
2022-12-02T16:41:28.371Z,18.60
2022-12-02T16:43:55.972Z,27.20
2022-12-02T16:46:23.590Z,24.60
2022-12-02T16:48:51.214Z,25.50
2022-12-02T16:51:18.816Z,22.00
2022-12-02T16:53:46.380Z,25.00
2022-12-02T16:56:13.939Z,25.00
2022-12-02T16:58:41.505Z,24.40
2022-12-02T17:01:09.147Z,25.00
2022-12-02T17:03:36.769Z,24.80
2022-12-02T17:06:04.488Z,25.60
2022-12-02T17:08:32.066Z,23.80
2022-12-02T17:10:59.655Z,23.70
2022-12-02T17:13:27.364Z,26.00
2022-12-02T17:15:54.955Z,22.80
2022-12-02T17:18:22.500Z,22.10
2022-12-02T17:20:55.304Z,27.30
2022-12-02T17:23:23.334Z,22.20
2022-12-02T17:25:51.133Z,28.00
2022-12-02T17:28:19.640Z,28.40
2022-12-02T17:30:47.211Z,23.90
2022-12-02T17:33:14.812Z,24.80
2022-12-02T17:35:42.405Z,22.30
2022-12-02T17:38:10.028Z,27.60
2022-12-02T17:40:37.630Z,27.20
2022-12-02T17:43:05.283Z,23.70
2022-12-02T17:45:32.884Z,23.70
2022-12-02T17:48:00.581Z,25.30
2022-12-02T17:50:28.267Z,28.50
2022-12-02T17:52:55.933Z,24.50
2022-12-02T17:55:23.709Z,26.40
2022-12-02T17:57:51.292Z,26.70
2022-12-02T18:00:19.146Z,26.20
2022-12-02T18:02:46.833Z,25.40
2022-12-02T18:05:14.506Z,24.30
2022-12-02T18:07:42.158Z,24.80
2022-12-02T18:10:10.062Z,25.10
2022-12-02T18:12:37.641Z,26.10
2022-12-02T18:15:05.861Z,29.20
2022-12-02T18:17:33.453Z,25.70
2022-12-02T18:20:01.040Z,23.80
2022-12-02T18:22:28.616Z,25.30
2022-12-02T18:24:56.508Z,25.60
2022-12-02T18:27:24.842Z,27.90
2022-12-02T18:29:52.405Z,20.70
2022-12-02T18:32:22.396Z,23.80
2022-12-02T18:34:50.553Z,28.80
2022-12-02T18:37:18.339Z,28.80
2022-12-02T18:39:48.047Z,30.50
2022-12-02T18:42:15.726Z,27.50
2022-12-02T18:44:43.435Z,29.30
2022-12-02T18:47:10.996Z,32.00
2022-12-02T18:49:42.643Z,32.40
2022-12-02T18:52:10.854Z,29.40
2022-12-02T18:54:40.914Z,27.70
2022-12-02T18:57:08.501Z,30.80
2022-12-02T18:59:36.253Z,29.50
2022-12-02T19:02:04.022Z,34.20
2022-12-02T19:04:31.716Z,32.50
2022-12-02T19:06:59.360Z,30.80
2022-12-02T19:09:27.026Z,30.80
2022-12-02T19:11:54.687Z,27.60
2022-12-02T19:14:22.370Z,23.00
2022-12-02T19:16:50.238Z,27.00
2022-12-02T19:19:18.003Z,28.80
2022-12-02T19:22:06.156Z,26.30
2022-12-02T19:24:41.701Z,24.90
2022-12-02T19:30:09.180Z,28.40
2022-12-02T19:32:36.776Z,30.40
2022-12-02T19:35:04.720Z,27.50
2022-12-02T19:37:32.368Z,28.70
2022-12-02T19:39:59.992Z,28.50
2022-12-02T19:42:27.638Z,32.50
2022-12-02T19:44:55.333Z,24.20
2022-12-02T19:47:23.036Z,27.70
2022-12-02T19:49:50.691Z,31.20
2022-12-02T19:52:18.665Z,29.20
2022-12-02T19:54:51.075Z,29.70
2022-12-02T19:57:19.332Z,24.50
2022-12-02T19:59:46.899Z,28.20
2022-12-02T20:02:14.789Z,28.30
2022-12-02T20:04:42.719Z,28.40
2022-12-02T20:07:10.498Z,27.00
2022-12-02T20:09:40.514Z,26.40
2022-12-02T20:12:08.289Z,27.60
2022-12-02T20:14:35.877Z,27.00
2022-12-02T20:17:03.485Z,26.20
2022-12-02T20:19:31.187Z,28.70
2022-12-02T20:21:58.925Z,23.90
2022-12-02T20:24:26.734Z,28.40
2022-12-02T20:26:54.443Z,27.20
2022-12-02T20:29:22.392Z,21.80
2022-12-02T20:31:50.090Z,22.70
2022-12-02T20:34:17.723Z,28.40
2022-12-02T20:36:45.609Z,26.60
2022-12-02T20:39:13.211Z,25.50
2022-12-02T20:41:43.526Z,26.50
2022-12-02T20:44:11.169Z,25.00
2022-12-02T20:46:38.890Z,25.40
2022-12-02T20:49:06.677Z,26.60
2022-12-02T20:51:34.278Z,29.00
2022-12-02T20:54:01.936Z,28.50
2022-12-02T20:56:29.671Z,30.60
2022-12-02T20:58:57.359Z,32.60
2022-12-02T21:01:25.096Z,25.60
2022-12-02T21:03:52.812Z,27.90
2022-12-02T21:06:20.646Z,24.30
2022-12-02T21:08:48.375Z,23.80
2022-12-02T21:11:15.966Z,24.90
2022-12-02T21:13:43.550Z,23.90
2022-12-02T21:16:11.247Z,25.40
2022-12-02T21:18:41.277Z,21.50
2022-12-02T21:21:08.923Z,26.60
2022-12-02T21:23:36.525Z,21.40
2022-12-02T21:26:04.242Z,21.90
2022-12-02T21:28:32.061Z,25.60
2022-12-02T21:30:59.741Z,24.10
2022-12-02T21:33:27.430Z,23.00
2022-12-02T21:35:55.030Z,23.60
2022-12-02T21:38:22.789Z,24.00
2022-12-02T21:40:50.404Z,25.40
2022-12-02T21:43:18.017Z,25.20
2022-12-02T21:45:45.653Z,22.00
2022-12-02T21:48:13.342Z,26.30
2022-12-02T21:50:40.955Z,28.00
2022-12-02T21:53:08.679Z,28.80
2022-12-02T21:55:36.597Z,24.20
2022-12-02T21:58:04.294Z,25.40
2022-12-02T22:00:32.060Z,22.00
2022-12-02T22:02:59.730Z,26.50
2022-12-02T22:05:27.326Z,27.40
2022-12-02T22:07:54.948Z,23.70
2022-12-02T22:10:25.228Z,26.20
2022-12-02T22:12:52.964Z,24.00
2022-12-02T22:15:21.688Z,26.90
2022-12-02T22:17:49.363Z,27.50
2022-12-02T22:20:17.396Z,27.70
2022-12-02T22:22:45.142Z,23.70
2022-12-02T22:25:12.770Z,24.10
2022-12-02T22:27:40.611Z,26.60
2022-12-02T22:30:09.434Z,28.20
2022-12-02T22:32:37.109Z,24.70
2022-12-02T22:35:05.089Z,24.50
2022-12-02T22:37:32.674Z,27.70
2022-12-02T22:40:00.294Z,23.90
2022-12-02T22:42:27.914Z,23.90
2022-12-02T22:44:55.791Z,23.00
2022-12-02T22:47:23.605Z,26.10
2022-12-02T22:49:51.300Z,24.00
2022-12-02T22:52:18.866Z,27.20
2022-12-02T22:54:46.445Z,25.40
2022-12-02T22:57:14.065Z,25.80
2022-12-02T22:59:41.747Z,26.10
2022-12-02T23:02:13.944Z,28.30
2022-12-02T23:04:44.643Z,26.80
2022-12-02T23:07:12.263Z,27.10
2022-12-02T23:09:39.866Z,19.50
2022-12-02T23:12:07.456Z,24.10
2022-12-02T23:14:35.025Z,23.30
2022-12-02T23:17:02.716Z,21.00
2022-12-02T23:19:30.404Z,29.70
2022-12-02T23:21:58.122Z,22.60
2022-12-02T23:24:25.722Z,27.30
2022-12-02T23:26:53.311Z,22.60
2022-12-02T23:29:20.963Z,26.90
2022-12-02T23:31:48.550Z,23.20
2022-12-02T23:34:16.145Z,25.10
2022-12-02T23:36:43.746Z,22.20
2022-12-02T23:39:11.394Z,28.40
2022-12-02T23:41:38.982Z,26.10
2022-12-02T23:44:06.652Z,28.20
2022-12-02T23:46:34.392Z,28.50
2022-12-02T23:49:02.161Z,27.60
2022-12-02T23:51:29.747Z,26.20
2022-12-02T23:53:57.370Z,25.60
2022-12-02T23:56:25.037Z,24.40
2022-12-02T23:58:52.677Z,28.20
